Time;durP1;ratioP1;P1;durP2;ratioP2;P2;SDS_P1;SDS_P2;PMS_P1;PMS_P2;Temp;Humidity;BMP_temperature;BMP_pressure;BME280_temperature;BME280_humidity;BME280_pressure;Samples;Min_cycle;Max_cycle;Signal;HPM_P1;HPM_P2
2021/11/15 00:02:20;;;;;;;20.75;8.68;;;10.30;99.20;;;;;;5011682;28;20073;-48
2021/11/15 00:04:46;;;;;;;26.15;8.90;;;10.30;99.10;;;;;;5012340;28;20034;-47
2021/11/15 00:07:12;;;;;;;23.60;9.02;;;10.30;99.20;;;;;;5011799;28;20036;-47
2021/11/15 00:09:38;;;;;;;19.45;9.20;;;10.30;99.20;;;;;;5010046;28;20113;-46
2021/11/15 00:12:04;;;;;;;19.83;8.90;;;10.30;99.20;;;;;;4992562;28;20027;-47
2021/11/15 00:14:30;;;;;;;20.05;8.07;;;10.30;99.20;;;;;;4993178;28;20350;-46
2021/11/15 00:16:55;;;;;;;24.67;10.38;;;10.30;99.10;;;;;;4992311;28;20510;-47
2021/11/15 00:19:21;;;;;;;22.73;9.13;;;10.30;99.00;;;;;;5008013;28;20342;-47
2021/11/15 00:21:47;;;;;;;23.60;10.25;;;10.30;99.10;;;;;;5010411;28;20408;-46
2021/11/15 00:24:13;;;;;;;19.42;8.60;;;10.30;99.10;;;;;;5012330;28;20029;-47
2021/11/15 00:26:39;;;;;;;22.75;8.85;;;10.30;99.10;;;;;;5009262;28;20040;-47
2021/11/15 00:29:05;;;;;;;22.48;8.77;;;10.30;99.10;;;;;;5012241;28;20037;-46
2021/11/15 00:31:30;;;;;;;19.13;8.75;;;10.30;99.00;;;;;;5004270;28;20350;-47
2021/11/15 00:33:56;;;;;;;23.38;9.55;;;10.30;99.10;;;;;;5003627;28;20037;-46
2021/11/15 00:36:23;;;;;;;24.10;9.55;;;10.30;98.90;;;;;;5011320;28;20033;-47
2021/11/15 00:38:49;;;;;;;19.55;8.32;;;10.30;99.10;;;;;;5012040;28;20034;-46
2021/11/15 00:41:16;;;;;;;25.98;9.20;;;10.30;99.00;;;;;;5010420;28;20065;-47
2021/11/15 00:43:42;;;;;;;19.30;8.32;;;10.30;99.10;;;;;;5011111;28;20033;-47
2021/11/15 00:46:08;;;;;;;20.27;9.18;;;10.30;99.10;;;;;;5010962;28;20061;-47
2021/11/15 00:48:34;;;;;;;24.13;8.65;;;10.30;99.00;;;;;;5011043;28;20113;-47
2021/11/15 00:51:00;;;;;;;22.13;9.95;;;10.30;99.10;;;;;;5011906;28;20105;-47
2021/11/15 00:53:26;;;;;;;18.75;8.38;;;10.30;99.00;;;;;;5010142;28;20099;-47
2021/11/15 00:55:52;;;;;;;20.45;8.93;;;10.30;99.10;;;;;;5010942;28;20030;-46
2021/11/15 00:58:18;;;;;;;20.25;9.57;;;10.30;99.00;;;;;;5011730;28;20030;-46
2021/11/15 01:00:44;;;;;;;22.95;7.90;;;10.30;99.10;;;;;;5011967;28;20056;-46
2021/11/15 01:03:12;;;;;;;27.17;9.50;;;10.30;99.00;;;;;;5009161;28;20029;-46
2021/11/15 01:05:40;;;;;;;25.88;9.80;;;10.30;99.00;;;;;;5010647;28;20038;-46
2021/11/15 01:08:07;;;;;;;23.75;9.93;;;10.30;99.00;;;;;;4999788;28;20411;-46
2021/11/15 01:10:34;;;;;;;18.70;8.23;;;10.30;99.00;;;;;;4991807;28;20036;-46
2021/11/15 01:13:00;;;;;;;21.80;8.57;;;10.30;99.00;;;;;;4991734;28;20068;-46
2021/11/15 01:15:29;;;;;;;24.38;9.32;;;10.20;98.90;;;;;;4991032;28;20466;-46
2021/11/15 01:17:56;;;;;;;26.92;10.35;;;10.30;99.00;;;;;;4991812;28;20045;-46
2021/11/15 01:20:26;;;;;;;21.95;9.15;;;10.30;99.00;;;;;;5006444;28;20113;-46
2021/11/15 01:22:51;;;;;;;25.55;10.07;;;10.30;99.10;;;;;;4991169;28;20140;-46
2021/11/15 01:25:17;;;;;;;27.23;10.55;;;10.30;99.00;;;;;;4992149;28;20420;-46
2021/11/15 01:27:43;;;;;;;24.58;11.18;;;10.30;98.90;;;;;;4990134;28;20026;-46
2021/11/15 01:30:12;;;;;;;25.60;11.60;;;10.20;99.00;;;;;;4992012;28;20019;-46
2021/11/15 01:32:39;;;;;;;21.38;7.90;;;10.30;98.90;;;;;;4991104;28;20034;-46
2021/11/15 01:35:06;;;;;;;20.35;10.40;;;10.20;98.90;;;;;;5003252;28;20401;-46
2021/11/15 01:37:32;;;;;;;21.67;8.68;;;10.20;98.70;;;;;;5011476;28;20049;-46
2021/11/15 01:39:58;;;;;;;26.50;10.85;;;10.20;98.90;;;;;;5010799;28;20484;-46
2021/11/15 01:42:23;;;;;;;20.90;8.13;;;10.30;98.80;;;;;;5011314;28;20014;-46
2021/11/15 01:44:50;;;;;;;21.92;9.20;;;10.30;98.90;;;;;;5009033;28;20029;-46
2021/11/15 01:47:16;;;;;;;20.63;9.43;;;10.30;98.80;;;;;;5010156;28;20025;-46
2021/11/15 01:49:42;;;;;;;23.73;9.13;;;10.30;98.70;;;;;;5009892;28;20098;-46
2021/11/15 01:52:08;;;;;;;16.90;7.18;;;10.30;98.80;;;;;;5011006;28;20041;-46
2021/11/15 01:54:34;;;;;;;34.95;8.65;;;10.30;98.80;;;;;;5012310;28;20018;-46
2021/11/15 01:57:00;;;;;;;22.70;9.10;;;10.20;98.80;;;;;;5012495;28;20029;-46
2021/11/15 01:59:26;;;;;;;18.67;7.90;;;10.20;98.70;;;;;;5011145;28;20037;-47
2021/11/15 02:01:52;;;;;;;24.15;8.75;;;10.30;98.70;;;;;;4995404;28;20022;-46
2021/11/15 02:04:18;;;;;;;26.63;10.57;;;10.20;98.70;;;;;;5002839;28;20026;-47
2021/11/15 02:06:44;;;;;;;26.05;9.38;;;10.20;98.80;;;;;;5005215;28;20097;-46
2021/11/15 02:09:10;;;;;;;23.13;9.20;;;10.20;98.70;;;;;;4995223;28;20026;-46
2021/11/15 02:11:36;;;;;;;18.67;8.02;;;10.20;98.70;;;;;;4994993;28;20034;-46
2021/11/15 02:14:03;;;;;;;14.30;7.32;;;10.20;98.70;;;;;;4994806;28;20026;-46
2021/11/15 02:16:29;;;;;;;20.02;7.95;;;10.20;98.70;;;;;;4995423;28;20105;-47
2021/11/15 02:18:55;;;;;;;23.90;9.25;;;10.20;98.80;;;;;;4998367;28;20042;-46
2021/11/15 02:21:22;;;;;;;22.48;9.80;;;10.20;98.80;;;;;;5014479;28;20025;-47
2021/11/15 02:23:49;;;;;;;17.05;8.98;;;10.20;98.80;;;;;;5014270;28;20100;-46
2021/11/15 02:26:16;;;;;;;24.13;10.68;;;10.20;98.80;;;;;;5013331;28;20065;-46
2021/11/15 02:28:44;;;;;;;20.95;8.48;;;10.20;98.70;;;;;;5012277;28;20034;-46
2021/11/15 02:31:12;;;;;;;16.70;8.15;;;10.20;98.80;;;;;;5013969;28;20027;-47
2021/11/15 02:33:38;;;;;;;24.77;8.65;;;10.20;98.80;;;;;;5013575;28;20037;-46
2021/11/15 02:36:06;;;;;;;26.77;9.23;;;10.20;98.70;;;;;;5013548;28;20485;-46
2021/11/15 02:38:32;;;;;;;22.95;8.35;;;10.20;98.70;;;;;;5012376;28;20099;-47
2021/11/15 02:40:58;;;;;;;26.85;8.85;;;10.20;98.80;;;;;;5013934;28;20325;-47
2021/11/15 02:43:24;;;;;;;19.85;8.50;;;10.20;98.80;;;;;;4996512;28;20425;-47
2021/11/15 02:45:51;;;;;;;19.17;8.95;;;10.20;98.70;;;;;;4993869;28;20481;-46
2021/11/15 02:48:22;;;;;;;17.70;7.97;;;10.20;98.70;;;;;;4996017;28;20112;-47
2021/11/15 02:50:49;;;;;;;21.55;8.73;;;10.20;98.80;;;;;;5010861;28;20037;-46
2021/11/15 02:53:14;;;;;;;18.25;7.65;;;10.20;98.80;;;;;;5013700;28;20068;-47
2021/11/15 02:55:43;;;;;;;15.77;6.82;;;10.20;98.70;;;;;;5006607;28;20026;-46
2021/11/15 02:58:10;;;;;;;17.13;7.72;;;10.20;98.80;;;;;;4994498;28;20026;-46
2021/11/15 03:00:43;;;;;;;23.73;10.55;;;10.20;98.80;;;;;;4994229;28;20050;-46
2021/11/15 03:03:11;;;;;;;20.95;9.05;;;10.20;98.80;;;;;;4993595;28;20094;-46
2021/11/15 03:05:39;;;;;;;23.17;8.77;;;10.20;98.80;;;;;;5007161;28;20030;-46
2021/11/15 03:08:06;;;;;;;20.65;7.97;;;10.20;98.80;;;;;;5014025;28;20053;-46
2021/11/15 03:10:34;;;;;;;22.95;8.02;;;10.20;98.60;;;;;;5002975;28;20445;-47
2021/11/15 03:13:00;;;;;;;18.75;7.57;;;10.20;98.70;;;;;;4993668;28;20041;-46
2021/11/15 03:15:32;;;;;;;16.85;7.03;;;10.20;98.70;;;;;;4993166;28;20065;-47
2021/11/15 03:18:02;;;;;;;16.45;7.45;;;10.20;98.80;;;;;;4993861;28;20356;-47
2021/11/15 03:20:30;;;;;;;15.02;6.13;;;10.20;98.80;;;;;;5004419;28;20038;-47
2021/11/15 03:22:56;;;;;;;19.08;7.45;;;10.20;98.70;;;;;;5012885;28;20041;-46
2021/11/15 03:25:27;;;;;;;15.25;7.22;;;10.20;98.70;;;;;;5008080;28;20038;-47
2021/11/15 03:27:53;;;;;;;19.27;7.55;;;10.20;98.60;;;;;;4993855;28;20117;-46
2021/11/15 03:30:20;;;;;;;16.08;6.90;;;10.20;98.60;;;;;;4993292;28;20030;-47
2021/11/15 03:32:47;;;;;;;22.05;7.35;;;10.20;98.70;;;;;;4994952;28;20034;-47
2021/11/15 03:35:14;;;;;;;15.38;6.15;;;10.20;98.60;;;;;;5001841;28;20033;-46
2021/11/15 03:37:40;;;;;;;17.27;8.30;;;10.20;98.60;;;;;;5013597;28;20022;-46
2021/11/15 03:40:14;;;;;;;18.02;7.00;;;10.20;98.70;;;;;;5012955;28;20091;-47
2021/11/15 03:42:42;;;;;;;18.38;5.72;;;10.20;98.60;;;;;;5011079;28;20029;-46
2021/11/15 03:45:09;;;;;;;14.93;6.90;;;10.20;98.60;;;;;;5012355;28;20038;-46
2021/11/15 03:47:35;;;;;;;17.70;6.15;;;10.20;98.50;;;;;;5005409;28;20052;-47
2021/11/15 03:50:02;;;;;;;17.38;6.75;;;10.20;98.60;;;;;;5012065;28;20058;-46
2021/11/15 03:52:28;;;;;;;17.52;7.00;;;10.20;98.60;;;;;;5011171;28;20120;-47
2021/11/15 03:54:54;;;;;;;16.02;7.18;;;10.20;98.50;;;;;;5012560;28;20101;-46
2021/11/15 03:57:19;;;;;;;14.88;5.95;;;10.20;98.60;;;;;;5012470;28;20022;-46
2021/11/15 03:59:45;;;;;;;18.67;6.55;;;10.20;98.60;;;;;;5012825;28;20192;-46
2021/11/15 04:02:11;;;;;;;15.52;6.60;;;10.20;98.60;;;;;;5012138;28;20076;-46
2021/11/15 04:04:53;;;;;;;19.02;7.38;;;10.20;98.70;;;;;;5009521;28;21421;-46
2021/11/15 04:07:30;;;;;;;13.27;5.70;;;10.20;98.60;;;;;;5000036;28;20031;-46
2021/11/15 04:09:59;;;;;;;18.10;6.55;;;10.20;98.70;;;;;;4993333;28;20030;-47
2021/11/15 04:12:26;;;;;;;16.33;6.18;;;10.20;98.70;;;;;;4992943;28;20281;-46
2021/11/15 04:14:52;;;;;;;12.57;6.30;;;10.20;98.70;;;;;;4993369;28;20093;-46
2021/11/15 04:17:19;;;;;;;14.38;6.53;;;10.20;98.60;;;;;;4991156;28;20034;-46
2021/11/15 04:19:47;;;;;;;19.83;7.25;;;10.20;98.60;;;;;;4994731;28;20462;-46
2021/11/15 04:22:13;;;;;;;15.05;6.38;;;10.20;98.60;;;;;;4992482;28;20030;-46
2021/11/15 04:24:38;;;;;;;16.50;6.45;;;10.20;98.60;;;;;;4993368;28;20052;-46
2021/11/15 04:27:05;;;;;;;17.40;6.88;;;10.20;98.70;;;;;;4991890;28;20029;-46
2021/11/15 04:29:32;;;;;;;16.55;7.18;;;10.20;98.70;;;;;;4992105;28;20458;-46
2021/11/15 04:31:58;;;;;;;12.18;6.10;;;10.10;98.60;;;;;;4992211;28;20413;-46
2021/11/15 04:34:24;;;;;;;16.02;5.90;;;10.20;98.70;;;;;;4992479;28;20054;-46
2021/11/15 04:36:49;;;;;;;24.20;7.15;;;10.20;98.70;;;;;;5010226;28;20029;-46
2021/11/15 04:39:15;;;;;;;16.52;6.32;;;10.20;98.70;;;;;;5011761;28;20316;-46
2021/11/15 04:41:40;;;;;;;17.42;6.93;;;10.20;98.70;;;;;;5011898;28;20018;-46
2021/11/15 04:44:06;;;;;;;34.85;8.48;;;10.20;99.10;;;;;;5011672;28;20053;-46
2021/11/15 04:46:32;;;;;;;17.50;6.78;;;10.20;98.70;;;;;;5008888;28;20030;-46
2021/11/15 04:48:57;;;;;;;22.85;8.23;;;10.20;98.70;;;;;;5011623;28;20041;-47
2021/11/15 04:51:23;;;;;;;22.35;8.48;;;10.20;98.70;;;;;;5011144;28;20022;-46
2021/11/15 04:53:49;;;;;;;20.58;7.63;;;10.20;98.70;;;;;;5011494;28;20393;-46
2021/11/15 04:56:15;;;;;;;18.48;6.65;;;10.20;98.70;;;;;;5009342;28;20038;-46
2021/11/15 04:58:41;;;;;;;12.88;6.32;;;10.20;98.70;;;;;;5011331;28;20385;-47
2021/11/15 05:01:07;;;;;;;16.83;7.50;;;10.20;98.60;;;;;;5011352;28;20030;-46
2021/11/15 05:03:35;;;;;;;16.02;6.80;;;10.20;98.70;;;;;;4996001;28;20390;-46
2021/11/15 05:06:02;;;;;;;14.02;6.97;;;10.20;98.70;;;;;;5000158;28;20367;-46
2021/11/15 05:08:28;;;;;;;17.52;7.25;;;10.20;98.70;;;;;;4994036;28;20531;-46
2021/11/15 05:10:53;;;;;;;12.77;6.47;;;10.20;98.70;;;;;;4991376;28;20026;-46
2021/11/15 05:13:19;;;;;;;18.58;6.97;;;10.20;98.60;;;;;;4991674;28;20026;-47
2021/11/15 05:15:45;;;;;;;20.38;7.88;;;10.20;98.60;;;;;;4991307;28;20037;-46
2021/11/15 05:18:10;;;;;;;18.02;8.13;;;10.20;98.60;;;;;;4992780;28;20705;-46
2021/11/15 05:20:36;;;;;;;18.15;8.73;;;10.10;98.60;;;;;;4996245;28;20036;-46
2021/11/15 05:23:02;;;;;;;20.40;9.20;;;10.20;98.50;;;;;;5011182;28;20022;-46
2021/11/15 05:25:28;;;;;;;26.23;8.15;;;10.20;98.60;;;;;;5010665;28;20038;-46
2021/11/15 05:27:54;;;;;;;14.05;6.80;;;10.10;98.50;;;;;;5009371;28;20103;-46
2021/11/15 05:30:20;;;;;;;27.42;8.10;;;10.10;98.60;;;;;;5010194;28;20030;-46
2021/11/15 05:32:48;;;;;;;16.85;7.47;;;10.10;98.60;;;;;;5008778;28;20041;-46
2021/11/15 05:35:14;;;;;;;18.13;6.82;;;10.10;98.60;;;;;;4991336;28;20030;-47
2021/11/15 05:37:40;;;;;;;18.70;6.70;;;10.10;98.70;;;;;;5011438;28;20293;-47
2021/11/15 05:40:07;;;;;;;23.75;7.40;;;10.10;98.60;;;;;;5008822;28;20042;-46
2021/11/15 05:42:33;;;;;;;15.38;6.30;;;10.10;98.60;;;;;;5010882;28;20057;-46
2021/11/15 05:44:59;;;;;;;18.63;7.90;;;10.20;98.70;;;;;;5010194;28;20530;-46
2021/11/15 05:47:25;;;;;;;24.17;7.78;;;10.10;98.70;;;;;;5010939;28;20088;-47
2021/11/15 05:49:51;;;;;;;16.13;6.82;;;10.10;98.60;;;;;;5009286;28;20026;-46
2021/11/15 05:52:20;;;;;;;17.05;7.18;;;10.10;98.60;;;;;;5008937;28;20026;-46
2021/11/15 05:54:45;;;;;;;19.60;6.88;;;10.10;98.60;;;;;;5010918;28;20206;-46
2021/11/15 05:57:11;;;;;;;23.88;6.80;;;10.10;98.60;;;;;;5010610;28;20025;-46
2021/11/15 05:59:37;;;;;;;16.58;7.78;;;10.10;98.60;;;;;;5009334;28;20488;-46
2021/11/15 06:02:03;;;;;;;14.52;6.68;;;10.20;98.60;;;;;;4993070;28;20022;-47
2021/11/15 06:04:28;;;;;;;17.52;7.43;;;10.10;98.60;;;;;;4991224;28;20027;-46
2021/11/15 06:06:54;;;;;;;16.20;7.43;;;10.10;98.60;;;;;;5005348;28;20026;-47
2021/11/15 06:09:20;;;;;;;18.23;7.47;;;10.10;98.60;;;;;;5013188;28;20030;-46
2021/11/15 06:11:45;;;;;;;19.10;8.07;;;10.10;98.60;;;;;;5021166;28;20021;-46
2021/11/15 06:14:11;;;;;;;14.77;7.07;;;10.10;98.60;;;;;;5030302;28;20376;-46
2021/11/15 06:16:38;;;;;;;24.73;9.60;;;10.10;98.60;;;;;;5029841;28;20022;-46
2021/11/15 06:19:04;;;;;;;16.67;8.23;;;10.10;98.60;;;;;;5028285;28;20037;-47
2021/11/15 06:21:29;;;;;;;16.52;6.93;;;10.10;98.60;;;;;;5007579;28;20356;-46
2021/11/15 06:23:55;;;;;;;21.70;8.27;;;10.10;98.60;;;;;;5009922;28;20034;-46
2021/11/15 06:26:21;;;;;;;18.10;7.43;;;10.10;98.60;;;;;;5009871;28;20357;-47
2021/11/15 06:28:48;;;;;;;27.40;8.68;;;10.20;98.50;;;;;;5009510;28;20026;-47
2021/11/15 06:31:15;;;;;;;18.70;7.75;;;10.20;98.60;;;;;;5008284;28;20089;-46
2021/11/15 06:33:41;;;;;;;18.08;6.75;;;10.10;98.40;;;;;;4990605;28;20481;-47
2021/11/15 06:36:07;;;;;;;17.60;7.18;;;10.10;98.30;;;;;;4993420;28;20034;-47
2021/11/15 06:38:33;;;;;;;17.38;7.38;;;10.10;98.30;;;;;;5010242;28;20395;-47
2021/11/15 06:40:59;;;;;;;15.77;6.93;;;10.10;98.30;;;;;;5012871;28;20148;-46
2021/11/15 06:43:25;;;;;;;18.05;7.32;;;10.10;98.30;;;;;;4999385;28;20030;-46
2021/11/15 06:45:50;;;;;;;18.33;6.57;;;10.10;98.30;;;;;;4991686;28;20034;-47
2021/11/15 06:48:16;;;;;;;18.35;7.20;;;10.10;98.40;;;;;;4994544;28;20037;-47
2021/11/15 06:50:42;;;;;;;15.15;5.95;;;10.10;98.30;;;;;;4994374;28;20476;-47
2021/11/15 06:53:07;;;;;;;19.85;6.93;;;10.10;98.30;;;;;;5011221;28;20034;-47
2021/11/15 06:55:33;;;;;;;13.95;6.80;;;10.10;98.40;;;;;;5013338;28;20014;-47
2021/11/15 06:57:59;;;;;;;13.13;6.38;;;10.10;98.30;;;;;;5004348;28;20698;-47
2021/11/15 07:00:26;;;;;;;14.27;5.68;;;10.10;98.40;;;;;;4994119;28;20038;-47
2021/11/15 07:02:54;;;;;;;15.23;6.45;;;10.10;98.40;;;;;;4993989;28;20026;-46
2021/11/15 07:05:21;;;;;;;24.40;8.75;;;10.10;98.40;;;;;;4996096;28;20069;-47
2021/11/15 07:07:51;;;;;;;18.85;7.53;;;10.10;98.40;;;;;;5012520;28;20041;-46
2021/11/15 07:10:18;;;;;;;14.88;5.88;;;10.10;98.40;;;;;;5013737;28;20018;-47
2021/11/15 07:12:46;;;;;;;18.30;6.40;;;10.10;98.40;;;;;;5013231;28;20038;-47
2021/11/15 07:15:13;;;;;;;16.05;6.97;;;10.10;98.40;;;;;;4999337;28;20515;-47
2021/11/15 07:17:38;;;;;;;18.25;6.72;;;10.10;98.40;;;;;;4993818;28;20066;-47
2021/11/15 07:20:05;;;;;;;18.38;5.85;;;10.10;98.40;;;;;;4993585;28;20072;-47
2021/11/15 07:22:31;;;;;;;19.33;7.53;;;10.10;98.40;;;;;;5007901;28;20072;-47
2021/11/15 07:24:57;;;;;;;17.15;7.47;;;10.10;98.40;;;;;;5011050;28;20069;-47
2021/11/15 07:27:23;;;;;;;16.10;6.63;;;10.10;98.40;;;;;;5012972;28;20365;-47
2021/11/15 07:29:48;;;;;;;23.92;7.00;;;10.10;98.60;;;;;;5013020;28;20460;-47
2021/11/15 07:32:14;;;;;;;15.85;5.85;;;10.10;98.50;;;;;;5013151;28;20035;-47
2021/11/15 07:34:41;;;;;;;13.57;6.63;;;10.10;98.40;;;;;;5012730;28;20113;-46
2021/11/15 07:37:07;;;;;;;16.15;5.70;;;10.10;98.40;;;;;;5001462;28;20527;-47
2021/11/15 07:39:41;;;;;;;16.35;6.50;;;10.10;98.50;;;;;;5012930;28;20173;-47
2021/11/15 07:42:11;;;;;;;13.02;6.43;;;10.10;98.40;;;;;;5012990;28;20035;-47
2021/11/15 07:44:37;;;;;;;17.45;6.55;;;10.10;98.50;;;;;;5013043;28;20056;-46
2021/11/15 07:47:03;;;;;;;20.13;7.38;;;10.10;98.50;;;;;;5010445;28;20446;-47
2021/11/15 07:49:29;;;;;;;12.88;6.38;;;10.10;98.50;;;;;;5005538;28;20041;-47
2021/11/15 07:51:55;;;;;;;18.98;6.18;;;10.10;98.50;;;;;;4997112;28;20030;-47
2021/11/15 07:54:20;;;;;;;14.40;6.57;;;10.10;98.50;;;;;;5012411;28;20033;-47
2021/11/15 07:56:46;;;;;;;18.50;7.60;;;10.10;98.50;;;;;;5010989;28;20160;-47
2021/11/15 07:59:12;;;;;;;17.33;6.07;;;10.10;98.40;;;;;;5012882;28;20083;-47
2021/11/15 08:01:37;;;;;;;20.20;7.57;;;10.10;98.50;;;;;;5012308;28;20030;-47
2021/11/15 08:04:03;;;;;;;16.85;7.20;;;10.10;98.40;;;;;;5005371;28;20061;-46
2021/11/15 08:06:29;;;;;;;17.42;6.82;;;10.10;98.40;;;;;;5003008;28;20034;-46
2021/11/15 08:08:54;;;;;;;12.68;6.00;;;10.10;98.50;;;;;;4995820;28;20023;-47
2021/11/15 08:11:22;;;;;;;19.35;6.97;;;10.10;98.40;;;;;;4992956;28;20026;-48
2021/11/15 08:13:47;;;;;;;16.50;6.75;;;10.10;98.50;;;;;;4992424;28;20030;-46
2021/11/15 08:16:13;;;;;;;18.60;7.88;;;10.10;98.40;;;;;;4992981;28;20081;-47
2021/11/15 08:18:40;;;;;;;13.98;6.03;;;10.10;98.50;;;;;;4993358;28;20038;-46
2021/11/15 08:21:12;;;;;;;15.80;5.95;;;10.10;98.50;;;;;;4992737;28;20058;-47
2021/11/15 08:23:38;;;;;;;16.88;6.45;;;10.10;98.50;;;;;;5009105;28;20084;-47
2021/11/15 08:26:29;;;;;;;15.07;6.32;;;10.10;98.60;;;;;;5011502;28;20034;-46
2021/11/15 08:29:07;;;;;;;19.15;6.90;;;10.10;98.50;;;;;;5005339;28;20018;-47
2021/11/15 08:31:34;;;;;;;10.88;5.85;;;10.10;98.50;;;;;;4992952;28;20053;-47
2021/11/15 08:37:22;;;;;;;17.00;7.65;;;10.10;98.60;;;;;;4997032;28;20036;-47
2021/11/15 08:39:48;;;;;;;18.33;6.03;;;10.10;98.60;;;;;;5010434;28;20181;-46
2021/11/15 08:42:14;;;;;;;13.20;6.20;;;10.10;98.60;;;;;;5012036;28;20412;-47
2021/11/15 08:44:43;;;;;;;19.52;7.45;;;10.10;98.50;;;;;;5000543;28;20033;-47
2021/11/15 08:47:09;;;;;;;15.35;5.60;;;10.10;98.50;;;;;;4991491;28;20066;-47
2021/11/15 08:49:35;;;;;;;17.30;6.95;;;10.10;98.60;;;;;;4992988;28;20415;-47
2021/11/15 08:52:05;;;;;;;19.50;7.90;;;10.10;98.60;;;;;;4993881;28;20036;-47
2021/11/15 08:54:31;;;;;;;16.33;7.30;;;10.10;98.60;;;;;;5011652;28;20113;-47
2021/11/15 08:57:00;;;;;;;18.20;6.90;;;10.10;98.60;;;;;;5010685;28;20065;-47
2021/11/15 08:59:25;;;;;;;14.73;6.60;;;10.10;98.60;;;;;;5011692;28;20045;-48
2021/11/15 09:01:52;;;;;;;14.52;6.32;;;10.10;98.60;;;;;;5009776;28;20025;-47
2021/11/15 09:04:17;;;;;;;16.75;7.35;;;10.10;98.60;;;;;;5010994;28;20520;-47
2021/11/15 09:06:43;;;;;;;16.23;7.00;;;10.20;98.60;;;;;;5010203;28;20080;-46
2021/11/15 09:09:15;;;;;;;17.70;6.35;;;10.10;98.60;;;;;;5010437;28;20452;-47
2021/11/15 09:11:48;;;;;;;18.88;6.05;;;10.10;98.60;;;;;;5009860;28;20455;-47
2021/11/15 09:14:14;;;;;;;19.05;6.85;;;10.10;98.70;;;;;;5011723;28;20040;-47
2021/11/15 09:16:42;;;;;;;14.52;6.30;;;10.10;98.70;;;;;;5010313;28;20049;-48
2021/11/15 09:19:09;;;;;;;18.77;7.13;;;10.10;98.60;;;;;;5011419;28;20111;-47
2021/11/15 09:21:34;;;;;;;20.40;7.10;;;10.10;98.70;;;;;;5009336;28;20472;-47
2021/11/15 09:24:00;;;;;;;19.73;7.20;;;10.10;98.70;;;;;;5010328;28;20109;-47
2021/11/15 09:26:26;;;;;;;17.88;5.93;;;10.10;98.60;;;;;;5007375;28;20064;-47
2021/11/15 09:28:54;;;;;;;15.43;6.53;;;10.10;98.60;;;;;;5002340;28;20025;-47
2021/11/15 09:31:20;;;;;;;11.65;5.65;;;10.10;98.60;;;;;;5010527;28;20416;-47
2021/11/15 09:33:46;;;;;;;17.50;6.60;;;10.10;98.70;;;;;;4997778;28;20035;-47
2021/11/15 09:36:11;;;;;;;12.98;5.60;;;10.10;98.60;;;;;;4990616;28;20058;-47
2021/11/15 09:38:39;;;;;;;15.02;5.90;;;10.10;98.70;;;;;;5002949;28;20334;-47
2021/11/15 09:41:07;;;;;;;17.15;7.30;;;10.10;98.70;;;;;;5010534;28;20046;-46
2021/11/15 09:43:34;;;;;;;14.60;5.50;;;10.20;98.70;;;;;;5004306;28;20030;-47
2021/11/15 09:46:06;;;;;;;14.45;6.13;;;10.10;98.70;;;;;;5009844;28;20314;-46
2021/11/15 09:48:37;;;;;;;12.77;6.10;;;10.10;98.70;;;;;;5011259;28;20033;-46
2021/11/15 09:51:05;;;;;;;15.02;6.82;;;10.10;98.70;;;;;;5011019;28;20022;-46
2021/11/15 09:53:31;;;;;;;20.00;6.75;;;10.10;98.70;;;;;;5008339;28;20053;-46
2021/11/15 09:55:58;;;;;;;19.25;7.50;;;10.10;98.70;;;;;;5010348;28;20403;-46
2021/11/15 09:58:23;;;;;;;14.02;5.93;;;10.10;98.70;;;;;;5010501;28;20026;-46
2021/11/15 10:00:49;;;;;;;18.25;7.47;;;10.10;98.60;;;;;;5010788;28;20091;-47
2021/11/15 10:03:16;;;;;;;15.07;6.50;;;10.10;98.60;;;;;;4997335;28;20378;-46
2021/11/15 10:05:45;;;;;;;21.50;7.78;;;10.20;98.60;;;;;;5002817;28;20026;-46
2021/11/15 10:08:12;;;;;;;13.85;6.00;;;10.10;98.70;;;;;;5010021;28;20049;-46
2021/11/15 10:10:55;;;;;;;19.38;7.95;;;10.20;98.70;;;;;;5010221;28;20457;-46
2021/11/15 10:13:27;;;;;;;21.67;9.05;;;10.20;98.70;;;;;;5010916;28;20041;-47
2021/11/15 10:15:54;;;;;;;17.75;7.07;;;10.20;98.70;;;;;;5010441;28;20029;-46
2021/11/15 10:18:34;;;;;;;17.10;6.63;;;10.20;98.60;;;;;;5014682;28;20037;-46
2021/11/15 10:21:07;;;;;;;15.82;7.90;;;10.20;98.70;;;;;;4998966;28;20042;-46
2021/11/15 10:23:34;;;;;;;17.10;6.40;;;10.20;98.60;;;;;;5002040;28;20033;-47
2021/11/15 10:26:08;;;;;;;19.58;7.45;;;10.10;98.70;;;;;;5012434;28;20053;-46
2021/11/15 10:28:34;;;;;;;25.10;9.50;;;10.10;98.70;;;;;;5013036;28;20030;-47
2021/11/15 10:31:00;;;;;;;18.73;8.48;;;10.10;98.70;;;;;;5013932;28;20029;-46
2021/11/15 10:33:40;;;;;;;31.00;8.55;;;10.10;98.60;;;;;;5014094;28;20026;-46
2021/11/15 10:36:06;;;;;;;24.90;6.25;;;10.20;99.00;;;;;;5011307;28;20018;-46
2021/11/15 10:38:47;;;;;;;23.48;7.00;;;10.20;98.70;;;;;;5011807;28;20057;-46
2021/11/15 10:41:15;;;;;;;20.45;8.48;;;10.20;98.60;;;;;;5013667;28;20117;-46
2021/11/15 10:43:40;;;;;;;15.95;7.05;;;10.20;98.60;;;;;;5013592;28;20701;-46
2021/11/15 10:46:06;;;;;;;18.63;7.32;;;10.10;98.50;;;;;;5013498;28;20037;-46
2021/11/15 10:48:45;;;;;;;16.52;7.13;;;10.20;98.60;;;;;;5012927;28;20044;-46
2021/11/15 10:51:13;;;;;;;13.35;6.40;;;10.20;98.60;;;;;;4994109;28;20369;-47
2021/11/15 10:54:12;;;;;;;22.00;6.47;;;10.10;98.60;;;;;;5000504;28;20018;-47
2021/11/15 10:56:41;;;;;;;18.80;6.68;;;10.20;98.50;;;;;;5011585;28;20469;-46
2021/11/15 10:59:15;;;;;;;19.20;6.93;;;10.20;98.60;;;;;;5006245;28;20038;-46
2021/11/15 11:01:43;;;;;;;19.50;6.80;;;10.20;98.50;;;;;;5013907;28;20104;-46
2021/11/15 11:04:16;;;;;;;16.77;6.47;;;10.20;98.60;;;;;;5013218;28;20377;-47
2021/11/15 11:07:07;;;;;;;16.00;6.43;;;10.10;98.60;;;;;;5012783;28;20029;-46
2021/11/15 11:09:34;;;;;;;21.60;7.88;;;10.20;98.60;;;;;;5011206;28;20053;-46
2021/11/15 11:12:08;;;;;;;25.75;8.85;;;10.20;98.60;;;;;;5013965;28;20087;-47
2021/11/15 11:14:35;;;;;;;18.98;7.20;;;10.20;98.50;;;;;;5013036;28;20032;-46
2021/11/15 11:17:03;;;;;;;19.45;7.90;;;10.20;98.60;;;;;;5010561;28;20025;-46
2021/11/15 11:19:35;;;;;;;24.05;7.15;;;10.10;98.60;;;;;;5013171;28;20037;-46
2021/11/15 11:27:32;;;;;;;19.85;7.75;;;10.20;98.50;;;;;;5012931;28;20487;-46
2021/11/15 11:29:58;;;;;;;13.80;6.63;;;10.20;98.50;;;;;;4993537;28;20403;-46
2021/11/15 11:32:28;;;;;;;18.98;7.15;;;10.20;98.60;;;;;;4994394;28;20089;-46
2021/11/15 11:34:59;;;;;;;18.10;7.38;;;10.20;98.60;;;;;;4994788;28;20465;-47
2021/11/15 11:37:27;;;;;;;18.10;6.70;;;10.20;98.60;;;;;;4993128;28;20030;-47
2021/11/15 11:39:55;;;;;;;21.08;7.47;;;10.20;98.70;;;;;;4997611;28;20374;-47
2021/11/15 11:42:21;;;;;;;22.55;8.00;;;10.20;98.60;;;;;;4994140;28;20456;-47
2021/11/15 11:44:47;;;;;;;20.70;6.78;;;10.20;98.50;;;;;;5011005;28;20034;-47
2021/11/15 11:47:19;;;;;;;19.77;7.32;;;10.10;98.60;;;;;;5011951;28;20404;-47
2021/11/15 11:49:46;;;;;;;15.95;6.47;;;10.20;98.60;;;;;;5012694;28;20030;-47
2021/11/15 11:52:15;;;;;;;19.77;7.32;;;10.10;98.60;;;;;;5010776;28;20045;-47
2021/11/15 11:54:46;;;;;;;24.65;8.32;;;10.20;98.60;;;;;;5012229;28;20080;-47
2021/11/15 11:57:19;;;;;;;19.25;7.78;;;10.20;98.60;;;;;;5011255;28;20255;-47
2021/11/15 11:59:44;;;;;;;19.70;7.20;;;10.10;98.50;;;;;;5010916;28;20042;-47
2021/11/15 12:02:17;;;;;;;19.90;7.63;;;10.20;98.50;;;;;;5012634;28;20170;-47
2021/11/15 12:05:04;;;;;;;18.48;8.02;;;10.20;98.50;;;;;;5010462;28;20060;-46
2021/11/15 12:07:38;;;;;;;22.60;7.78;;;10.20;98.50;;;;;;5012431;28;20121;-47
2021/11/15 12:10:10;;;;;;;27.95;8.02;;;10.20;98.50;;;;;;5012140;28;20140;-46
2021/11/15 12:12:51;;;;;;;23.05;9.23;;;10.10;98.50;;;;;;5010486;28;20069;-47
2021/11/15 12:15:41;;;;;;;20.58;8.45;;;10.10;98.50;;;;;;5010615;28;20030;-47
2021/11/15 12:18:12;;;;;;;;;;;10.10;98.50;;;;;;4992946;28;20022;-47
2021/11/15 12:21:06;;;;;;;31.75;8.07;;;10.20;98.60;;;;;;4997279;28;20012;-47
2021/11/15 12:23:41;;;;;;;17.50;8.23;;;10.10;98.60;;;;;;5010514;28;20173;-47
2021/11/15 12:26:10;;;;;;;21.25;8.48;;;10.10;98.60;;;;;;4991754;28;20105;-48
2021/11/15 12:28:38;;;;;;;22.25;8.02;;;10.20;98.50;;;;;;5000565;28;20030;-47
2021/11/15 12:31:06;;;;;;;21.75;8.32;;;10.20;98.50;;;;;;5011647;28;20030;-47
2021/11/15 12:33:34;;;;;;;26.23;9.15;;;10.20;98.50;;;;;;4999958;28;20080;-47
2021/11/15 12:36:03;;;;;;;24.73;8.82;;;10.20;98.40;;;;;;4992436;28;20034;-47
2021/11/15 12:38:30;;;;;;;24.02;7.45;;;10.20;98.70;;;;;;4991866;28;20045;-46
2021/11/15 12:40:55;;;;;;;21.05;8.40;;;10.20;98.50;;;;;;5009902;28;20483;-47
2021/11/15 12:43:21;;;;;;;26.45;9.63;;;10.10;98.50;;;;;;5011621;28;20030;-47
2021/11/15 12:46:05;;;;;;;24.02;8.07;;;10.20;98.50;;;;;;5009411;28;20404;-48
2021/11/15 12:48:40;;;;;;;22.17;9.00;;;10.20;98.50;;;;;;5011210;28;20057;-47